Wheldrake, United Kingdom
Current Conditions -  °F | °C
As of 6:50 AM on Saturday 29 Nov 2014 (Local Time) from EGXU Reporting Station
Overcast Overcast  
Wind Chill: 50°   Ceiling: 800
Heat Index: 50°   Visibility: 2mi
Dew Point: 48°   Wind: 8mph
Humidity: 94%   Direction: 120°ESE
Pressure: 29.88"   Gusts: NA
Location:  53.9°N, 0.96°W
Report Text: EGXU 290650Z AUTO 12007KT 3200 // OVC008/// 10/09 Q1012
Loading
Personal Weather Stations






























Interactive Weather Map New forecast layout! Learn more

10-Day Weather Forecast

Advertisements
Track Severe Weather on mobile